createdAt,value
2018-07-16T00:00:14.056Z,100119.56
2018-07-16T00:02:40.948Z,100124.33
2018-07-16T00:05:07.868Z,100129.83
2018-07-16T00:07:34.816Z,100131.13
2018-07-16T00:10:01.697Z,100136.02
2018-07-16T00:12:28.582Z,100138.44
2018-07-16T00:14:55.463Z,100135.04
2018-07-16T00:17:22.345Z,100142.19
2018-07-16T00:19:49.228Z,100142.50
2018-07-16T00:22:16.120Z,100141.78
2018-07-16T00:24:43.150Z,100135.91
2018-07-16T00:27:10.047Z,100143.22
2018-07-16T00:29:37.087Z,100149.64
2018-07-16T00:32:07.025Z,100155.77
2018-07-16T00:34:33.902Z,100154.36
2018-07-16T00:37:00.803Z,100163.28
2018-07-16T00:39:27.713Z,100165.72
2018-07-16T00:41:54.592Z,100162.48
2018-07-16T00:44:21.521Z,100169.08
2018-07-16T00:46:48.401Z,100169.08
2018-07-16T00:49:15.335Z,100171.72
2018-07-16T00:51:42.215Z,100171.81
2018-07-16T00:54:09.116Z,100170.48
2018-07-16T00:56:36.016Z,100179.64
2018-07-16T00:59:02.883Z,100177.84
2018-07-16T01:01:29.763Z,100184.08
2018-07-16T01:03:56.734Z,100185.20
2018-07-16T01:06:24.163Z,100179.02
2018-07-16T01:08:51.084Z,100176.06
2018-07-16T01:11:17.996Z,100174.52
2018-07-16T01:13:45.316Z,100170.47
2018-07-16T01:16:12.265Z,100175.59
2018-07-16T01:18:39.164Z,100180.58
2018-07-16T01:21:06.190Z,100179.95
2018-07-16T01:23:33.071Z,100168.80
2018-07-16T01:26:00.096Z,100173.02
2018-07-16T01:28:27.032Z,100173.53
2018-07-16T01:30:56.800Z,100163.48
2018-07-16T01:33:27.105Z,100171.33
2018-07-16T01:35:53.999Z,100165.34
2018-07-16T01:38:20.942Z,100166.73
2018-07-16T01:40:48.823Z,100156.02
2018-07-16T01:43:15.721Z,100161.48
2018-07-16T01:45:42.695Z,100152.66
2018-07-16T01:48:09.587Z,100153.73
2018-07-16T01:50:36.536Z,100160.86
2018-07-16T01:53:03.488Z,100160.92
2018-07-16T01:55:30.416Z,100159.30
2018-07-16T01:57:57.356Z,100157.68
2018-07-16T02:00:24.314Z,100150.29
2018-07-16T02:02:51.202Z,100148.71
2018-07-16T02:05:18.128Z,100145.95
2018-07-16T02:07:45.078Z,100140.44
2018-07-16T02:10:12.103Z,100138.39
2018-07-16T02:12:38.995Z,100131.14
2018-07-16T02:15:05.903Z,100122.84
2018-07-16T02:17:33.151Z,100118.09
2018-07-16T02:20:01.068Z,100111.06
2018-07-16T02:22:28.045Z,100108.22
2018-07-16T02:24:54.955Z,100109.57
2018-07-16T02:27:21.940Z,100106.78
2018-07-16T02:29:48.827Z,100101.42
2018-07-16T02:32:15.741Z,100095.20
2018-07-16T02:34:42.687Z,100093.98
2018-07-16T02:37:09.588Z,100092.02
2018-07-16T02:39:36.488Z,100092.27
2018-07-16T02:42:03.385Z,100088.09
2018-07-16T02:44:30.414Z,100093.95
2018-07-16T02:46:57.299Z,100089.77
2018-07-16T02:49:24.256Z,100083.70
2018-07-16T02:51:51.183Z,100090.33
2018-07-16T02:54:18.074Z,100093.56
2018-07-16T02:56:45.117Z,100088.95
2018-07-16T02:59:12.024Z,100091.30
2018-07-16T03:01:38.962Z,100090.80
2018-07-16T03:04:06.052Z,100093.17
2018-07-16T03:06:32.956Z,100087.11
2018-07-16T03:08:59.864Z,100084.34
2018-07-16T03:11:26.829Z,100082.48
2018-07-16T03:13:53.767Z,100084.89
2018-07-16T03:16:20.703Z,100080.06
2018-07-16T03:18:47.601Z,100072.92
2018-07-16T03:21:14.529Z,100069.70
2018-07-16T03:23:41.426Z,100069.20
2018-07-16T03:26:08.344Z,100071.02
2018-07-16T03:28:35.249Z,100068.69
2018-07-16T03:31:02.193Z,100067.94
2018-07-16T03:33:29.095Z,100071.70
2018-07-16T03:35:55.996Z,100069.95
2018-07-16T03:38:22.928Z,100067.27
2018-07-16T03:40:49.821Z,100065.73
2018-07-16T03:43:16.745Z,100068.24
2018-07-16T03:45:43.674Z,100060.95
2018-07-16T03:48:10.658Z,100068.02
2018-07-16T03:50:38.349Z,100073.69
2018-07-16T03:53:05.247Z,100068.67
2018-07-16T03:55:32.144Z,100066.86
2018-07-16T03:57:59.236Z,100066.05
2018-07-16T04:00:26.154Z,100061.17
2018-07-16T04:02:53.087Z,100054.02
2018-07-16T04:05:19.970Z,100055.09
2018-07-16T04:07:46.902Z,100053.78
2018-07-16T04:12:44.267Z,100049.89
2018-07-16T04:15:11.187Z,100051.70
2018-07-16T04:17:38.089Z,100057.00
2018-07-16T04:20:04.992Z,100058.94
2018-07-16T04:22:32.871Z,100063.38
2018-07-16T04:24:59.769Z,100064.77
2018-07-16T04:27:26.709Z,100061.52
2018-07-16T04:29:53.615Z,100062.94
2018-07-16T04:32:20.498Z,100067.34
2018-07-16T04:34:47.379Z,100070.28
2018-07-16T04:37:14.295Z,100064.91
2018-07-16T04:39:41.229Z,100063.31
2018-07-16T04:42:07.988Z,100062.47
2018-07-16T04:44:34.921Z,100062.72
2018-07-16T04:47:01.828Z,100063.41
2018-07-16T04:49:28.726Z,100063.22
2018-07-16T04:51:55.681Z,100063.41
2018-07-16T04:54:22.575Z,100069.39
2018-07-16T04:56:50.428Z,100066.84
2018-07-16T04:59:17.304Z,100067.37
2018-07-16T05:01:44.229Z,100071.48
2018-07-16T05:04:11.179Z,100070.55
2018-07-16T05:06:38.072Z,100068.22
2018-07-16T05:09:05.330Z,100058.80
2018-07-16T05:11:32.287Z,100059.69
2018-07-16T05:13:59.203Z,100067.45
2018-07-16T05:16:26.118Z,100073.07
2018-07-16T05:18:56.032Z,100066.45
2018-07-16T05:21:22.939Z,100075.00
2018-07-16T05:23:49.879Z,100067.86
2018-07-16T05:26:16.809Z,100069.83
2018-07-16T05:28:47.242Z,100068.71
2018-07-16T05:31:14.160Z,100061.13
2018-07-16T05:33:41.068Z,100056.31
2018-07-16T05:36:07.959Z,100060.83
2018-07-16T05:38:34.912Z,100048.20
2018-07-16T05:41:01.839Z,100056.31
2018-07-16T05:43:28.728Z,100054.06
2018-07-16T05:45:55.595Z,100058.30
2018-07-16T05:48:22.854Z,100055.59
2018-07-16T05:50:49.757Z,100061.73
2018-07-16T05:53:16.680Z,100053.45
2018-07-16T05:55:43.577Z,100055.36
2018-07-16T05:58:10.529Z,100060.73
2018-07-16T06:00:37.342Z,100062.09
2018-07-16T06:03:04.280Z,100058.70
2018-07-16T06:05:31.193Z,100062.31
2018-07-16T06:07:58.080Z,100061.24
2018-07-16T06:10:25.449Z,100060.59
2018-07-16T06:12:52.335Z,100059.61
2018-07-16T06:15:21.062Z,100066.53
2018-07-16T06:17:48.082Z,100069.80
2018-07-16T06:20:16.032Z,100067.82
2018-07-16T06:22:42.951Z,100061.13
2018-07-16T06:25:09.984Z,100056.38
2018-07-16T06:27:37.923Z,100062.79
2018-07-16T06:30:04.877Z,100053.25
2018-07-16T06:32:31.945Z,100060.06
2018-07-16T06:34:59.213Z,100055.34
2018-07-16T06:37:26.138Z,100055.38
2018-07-16T06:39:53.165Z,100053.73
2018-07-16T06:42:20.364Z,100056.23
2018-07-16T06:44:47.330Z,100057.92
2018-07-16T06:47:14.317Z,100057.91
2018-07-16T06:49:41.271Z,100054.09
2018-07-16T06:52:08.162Z,100056.23
2018-07-16T06:54:35.147Z,100050.02
2018-07-16T06:57:02.077Z,100060.37
2018-07-16T06:59:29.242Z,100058.84
2018-07-16T07:01:56.335Z,100062.27
2018-07-16T07:04:23.235Z,100062.38
2018-07-16T07:06:50.240Z,100065.52
2018-07-16T07:09:17.135Z,100062.52
2018-07-16T07:11:44.044Z,100061.23
2018-07-16T07:14:11.001Z,100065.49
2018-07-16T07:16:37.899Z,100058.22
2018-07-16T07:19:04.954Z,100054.80
2018-07-16T07:21:31.882Z,100055.44
2018-07-16T07:23:58.809Z,100054.46
2018-07-16T07:26:25.819Z,100056.63
2018-07-16T07:28:52.754Z,100049.06
2018-07-16T07:31:19.736Z,100052.80
2018-07-16T07:33:46.629Z,100046.50
2018-07-16T07:36:13.597Z,100048.49
2018-07-16T07:38:40.465Z,100047.23
2018-07-16T07:41:07.414Z,100044.44
2018-07-16T07:43:34.349Z,100046.28
2018-07-16T07:46:01.439Z,100037.39
2018-07-16T07:48:29.008Z,100045.62
2018-07-16T07:50:55.918Z,100043.97
2018-07-16T07:53:22.815Z,100038.63
2018-07-16T07:55:49.752Z,100036.18
2018-07-16T07:58:16.681Z,100043.62
2018-07-16T08:00:43.595Z,100036.91
2018-07-16T08:05:38.503Z,100033.91
2018-07-16T08:08:07.060Z,100029.60
2018-07-16T08:10:35.108Z,100034.47
2018-07-16T08:13:02.056Z,100027.95
2018-07-16T08:15:30.577Z,100040.95
2018-07-16T08:17:57.506Z,100039.14
2018-07-16T08:20:25.451Z,100022.78
2018-07-16T08:22:52.412Z,100024.88
2018-07-16T08:25:19.791Z,100023.20
2018-07-16T08:27:46.771Z,100024.11
2018-07-16T08:30:13.760Z,100031.47
2018-07-16T08:32:42.727Z,100031.42
2018-07-16T08:35:10.555Z,100027.27
2018-07-16T08:37:39.950Z,100036.98
2018-07-16T08:40:07.235Z,100031.95
2018-07-16T08:42:34.432Z,100040.77
2018-07-16T08:45:01.372Z,100026.20
2018-07-16T08:47:30.389Z,100032.23
2018-07-16T08:49:57.316Z,100043.77
2018-07-16T08:52:24.324Z,100030.92
2018-07-16T08:54:51.240Z,100034.80
2018-07-16T08:57:18.159Z,100035.52
2018-07-16T08:59:49.679Z,100033.20
2018-07-16T09:02:16.557Z,100038.95
2018-07-16T09:04:43.481Z,100032.27
2018-07-16T09:07:10.404Z,100027.86
2018-07-16T09:09:37.329Z,100020.82
2018-07-16T09:12:04.269Z,100017.91
2018-07-16T09:14:31.188Z,100027.33
2018-07-16T09:16:58.182Z,100021.02
2018-07-16T09:19:25.046Z,100013.08
2018-07-16T09:21:52.043Z,100024.42
2018-07-16T09:24:19.032Z,100024.79
2018-07-16T09:26:45.950Z,100016.74
2018-07-16T09:29:12.853Z,100010.86
2018-07-16T09:31:39.756Z,100006.92
2018-07-16T09:34:07.084Z,100012.44
2018-07-16T09:36:33.995Z,100010.94
2018-07-16T09:39:00.939Z,100005.14
2018-07-16T09:41:30.910Z,100005.75
2018-07-16T09:43:57.807Z,100006.28
2018-07-16T09:46:24.744Z,100001.27
2018-07-16T09:48:52.653Z,99998.30
2018-07-16T09:51:19.550Z,99995.41
2018-07-16T09:53:46.490Z,100001.05
2018-07-16T09:56:16.846Z,99994.82
2018-07-16T09:58:43.708Z,99995.52
2018-07-16T10:01:16.572Z,99992.47
2018-07-16T10:03:43.483Z,99986.84
2018-07-16T10:06:10.436Z,99980.13
2018-07-16T10:08:37.332Z,99985.39
2018-07-16T10:11:04.291Z,99973.72
2018-07-16T10:13:31.236Z,99985.39
2018-07-16T10:15:58.155Z,99970.73
2018-07-16T10:18:25.151Z,99971.40
2018-07-16T10:20:52.035Z,99981.24
2018-07-16T10:23:18.947Z,99971.59
2018-07-16T10:25:45.938Z,99976.03
2018-07-16T10:28:12.860Z,99978.81
2018-07-16T10:30:41.857Z,99972.30
2018-07-16T10:33:08.675Z,99967.88
2018-07-16T10:35:35.612Z,99971.13
2018-07-16T10:38:02.553Z,99969.25
2018-07-16T10:40:29.478Z,99972.36
2018-07-16T10:42:56.382Z,99964.71
2018-07-16T10:45:23.621Z,99970.34
2018-07-16T10:47:51.055Z,99967.41
2018-07-16T10:50:18.062Z,99967.00
2018-07-16T10:52:45.107Z,99971.59
2018-07-16T10:55:12.764Z,99967.03
2018-07-16T10:57:39.667Z,99967.84
2018-07-16T11:00:06.640Z,99967.31
2018-07-16T11:02:34.993Z,99963.85
2018-07-16T11:05:01.968Z,99957.94
2018-07-16T11:07:28.888Z,99965.94
2018-07-16T11:09:55.844Z,99966.48
2018-07-16T11:12:22.777Z,99960.31
2018-07-16T11:14:53.428Z,99952.87
2018-07-16T11:17:20.348Z,99957.39
2018-07-16T11:19:47.377Z,99945.91
2018-07-16T11:22:14.343Z,99955.22
2018-07-16T11:24:41.256Z,99952.03
2018-07-16T11:27:08.147Z,99947.47
2018-07-16T11:29:35.084Z,99945.97
2018-07-16T11:32:02.428Z,99940.04
2018-07-16T11:34:29.364Z,99938.88
2018-07-16T11:36:56.335Z,99937.45
2018-07-16T11:39:23.238Z,99923.82
2018-07-16T11:41:50.171Z,99925.50
2018-07-16T11:44:17.108Z,99920.73
2018-07-16T11:46:44.812Z,99923.42
2018-07-16T11:49:11.776Z,99916.13
2018-07-16T11:51:38.684Z,99909.11
2018-07-16T11:54:05.585Z,99903.34
2018-07-16T11:56:32.518Z,99900.27
2018-07-16T11:58:59.505Z,99895.09
2018-07-16T12:01:26.390Z,99889.95
2018-07-16T12:03:53.409Z,99881.42
2018-07-16T12:06:22.216Z,99869.48
2018-07-16T12:08:49.129Z,99872.37
2018-07-16T12:11:16.086Z,99875.48
2018-07-16T12:13:43.016Z,99871.63
2018-07-16T12:16:09.927Z,99861.77
2018-07-16T12:18:36.930Z,99861.93
2018-07-16T12:21:04.200Z,99854.42
2018-07-16T12:23:31.160Z,99859.25
2018-07-16T12:25:58.168Z,99850.04
2018-07-16T12:28:25.019Z,99850.73
2018-07-16T12:30:51.933Z,99853.97
2018-07-16T12:33:18.873Z,99856.58
2018-07-16T12:35:45.961Z,99848.57
2018-07-16T12:38:12.876Z,99848.08
2018-07-16T12:40:39.796Z,99847.52
2018-07-16T12:43:06.779Z,99836.48
2018-07-16T12:45:33.675Z,99842.34
2018-07-16T12:48:00.605Z,99831.02
2018-07-16T12:50:27.525Z,99829.47
2018-07-16T12:52:54.462Z,99830.48
2018-07-16T12:55:21.405Z,99824.95
2018-07-16T12:57:48.324Z,99819.18
2018-07-16T13:00:15.264Z,99818.85
2018-07-16T13:02:42.312Z,99811.77
2018-07-16T13:05:10.224Z,99815.55
2018-07-16T13:07:37.188Z,99802.66
2018-07-16T13:10:04.099Z,99795.66
2018-07-16T13:12:31.080Z,99806.39
2018-07-16T13:14:57.987Z,99798.42
2018-07-16T13:17:25.710Z,99792.90
2018-07-16T13:19:52.642Z,99805.00
2018-07-16T13:22:19.562Z,99797.27
2018-07-16T13:24:46.538Z,99795.57
2018-07-16T13:27:13.449Z,99790.61
2018-07-16T13:29:41.360Z,99796.15
2018-07-16T13:32:08.275Z,99785.19
2018-07-16T13:34:35.213Z,99787.16
2018-07-16T13:37:02.161Z,99789.94
2018-07-16T13:39:29.043Z,99792.75
2018-07-16T13:41:55.973Z,99792.88
2018-07-16T13:44:22.881Z,99797.42
2018-07-16T13:46:49.880Z,99780.50
2018-07-16T13:49:16.727Z,99786.19
2018-07-16T13:51:43.623Z,99778.73
2018-07-16T13:54:11.730Z,99783.61
2018-07-16T13:56:39.294Z,99782.36
2018-07-16T13:59:06.217Z,99779.69
2018-07-16T14:01:33.187Z,99776.30
2018-07-16T14:04:00.132Z,99777.94
2018-07-16T14:06:29.152Z,99777.28
2018-07-16T14:08:56.085Z,99768.66
2018-07-16T14:11:23.060Z,99767.60
2018-07-16T14:13:49.981Z,99759.81
2018-07-16T14:16:17.147Z,99753.10
2018-07-16T14:18:44.085Z,99749.44
2018-07-16T14:21:11.027Z,99748.22
2018-07-16T14:23:38.057Z,99752.33
2018-07-16T14:26:05.134Z,99744.48
2018-07-16T14:28:32.179Z,99742.16
2018-07-16T14:30:59.130Z,99738.16
2018-07-16T14:33:26.086Z,99732.84
2018-07-16T14:35:53.082Z,99735.30
2018-07-16T14:38:20.013Z,99736.17
2018-07-16T14:40:47.080Z,99734.41
2018-07-16T14:43:14.145Z,99742.08
2018-07-16T14:45:41.047Z,99738.89
2018-07-16T14:48:07.983Z,99725.31
2018-07-16T14:50:34.897Z,99728.02
2018-07-16T14:53:01.898Z,99723.22
2018-07-16T14:55:28.859Z,99713.80
2018-07-16T14:57:55.760Z,99723.67
2018-07-16T15:00:22.731Z,99716.66
2018-07-16T15:02:49.642Z,99706.09
2018-07-16T15:05:17.323Z,99709.05
2018-07-16T15:07:44.251Z,99708.08
2018-07-16T15:10:11.299Z,99712.61
2018-07-16T15:12:38.314Z,99707.86
2018-07-16T15:15:05.265Z,99706.14
2018-07-16T15:17:32.197Z,99704.05
2018-07-16T15:19:59.235Z,99702.30
2018-07-16T15:22:26.018Z,99695.63
2018-07-16T15:24:52.916Z,99692.42
2018-07-16T15:27:19.916Z,99696.66
2018-07-16T15:29:46.881Z,99693.09
2018-07-16T15:32:13.763Z,99684.50
2018-07-16T15:34:40.713Z,99687.80
2018-07-16T15:37:07.678Z,99692.12
2018-07-16T15:39:36.492Z,99686.36
2018-07-16T15:42:03.395Z,99678.56
2018-07-16T15:44:30.399Z,99689.61
2018-07-16T15:46:57.355Z,99681.55
2018-07-16T15:49:24.274Z,99685.80
2018-07-16T15:51:51.179Z,99680.77
2018-07-16T15:54:18.079Z,99676.28
2018-07-16T15:56:44.964Z,99676.81
2018-07-16T15:59:11.900Z,99672.14
2018-07-16T16:01:38.835Z,99668.33
2018-07-16T16:04:05.731Z,99665.95
2018-07-16T16:06:32.653Z,99683.27
2018-07-16T16:08:59.624Z,99683.28
2018-07-16T16:11:26.460Z,99682.52
2018-07-16T16:13:53.363Z,99688.61
2018-07-16T16:16:20.304Z,99698.38
2018-07-16T16:18:47.209Z,99691.17
2018-07-16T16:21:14.105Z,99695.48
2018-07-16T16:23:41.010Z,99701.67
2018-07-16T16:26:07.910Z,99703.47
2018-07-16T16:28:34.804Z,99701.06
2018-07-16T16:31:01.737Z,99704.67
2018-07-16T16:33:28.740Z,99717.55
2018-07-16T16:35:55.630Z,99716.75
2018-07-16T16:38:22.533Z,99712.98
2018-07-16T16:40:49.455Z,99719.53
2018-07-16T16:43:16.345Z,99717.41
2018-07-16T16:45:43.247Z,99717.15
2018-07-16T16:48:10.159Z,99722.53
2018-07-16T16:50:37.076Z,99721.22
2018-07-16T16:53:03.990Z,99712.36
2018-07-16T16:55:30.927Z,99714.25
2018-07-16T16:57:57.829Z,99713.47
2018-07-16T17:00:24.719Z,99708.72
2018-07-16T17:02:51.658Z,99711.91
2018-07-16T17:05:18.555Z,99712.77
2018-07-16T17:07:45.451Z,99707.99
2018-07-16T17:10:12.385Z,99705.30
2018-07-16T17:12:39.286Z,99704.44
2018-07-16T17:15:06.252Z,99705.80
2018-07-16T17:17:33.185Z,99701.83
2018-07-16T17:20:00.141Z,99695.43
2018-07-16T17:22:27.045Z,99688.05
2018-07-16T17:24:53.947Z,99684.61
2018-07-16T17:27:20.857Z,99680.25
2018-07-16T17:29:47.819Z,99675.91
2018-07-16T17:32:14.744Z,99677.29
2018-07-16T17:34:41.823Z,99678.02
2018-07-16T17:37:08.721Z,99677.14
2018-07-16T17:39:35.667Z,99665.84
2018-07-16T17:42:02.579Z,99671.56
2018-07-16T17:44:29.505Z,99662.22
2018-07-16T17:46:56.390Z,99676.13
2018-07-16T17:49:23.295Z,99678.56
2018-07-16T17:51:50.210Z,99677.66
2018-07-16T17:54:17.107Z,99683.88
2018-07-16T17:56:44.044Z,99684.28
2018-07-16T17:59:10.958Z,99686.59
2018-07-16T18:01:37.872Z,99690.83
2018-07-16T18:04:04.737Z,99698.66
2018-07-16T18:06:31.840Z,99704.02
2018-07-16T18:08:58.726Z,99703.58
2018-07-16T18:11:25.611Z,99700.20
2018-07-16T18:13:52.524Z,99706.50
2018-07-16T18:16:19.418Z,99718.66
2018-07-16T18:18:46.629Z,99710.96
2018-07-16T18:21:13.600Z,99720.54
2018-07-16T18:23:40.599Z,99725.84
2018-07-16T18:26:07.529Z,99725.05
2018-07-16T18:28:34.691Z,99727.77
2018-07-16T18:31:01.693Z,99725.02
2018-07-16T18:33:28.835Z,99729.41
2018-07-16T18:35:55.741Z,99737.06
2018-07-16T18:38:22.620Z,99738.15
2018-07-16T18:40:49.511Z,99738.39
2018-07-16T18:43:17.431Z,99735.90
2018-07-16T18:45:44.325Z,99738.91
2018-07-16T18:48:11.232Z,99744.45
2018-07-16T18:50:38.163Z,99745.88
2018-07-16T18:53:05.120Z,99747.02
2018-07-16T18:55:32.065Z,99752.38
2018-07-16T18:57:58.950Z,99757.53
2018-07-16T19:00:25.864Z,99766.15
2018-07-16T19:02:52.756Z,99766.36
2018-07-16T19:05:19.739Z,99770.49
2018-07-16T19:07:46.652Z,99762.48
2018-07-16T19:10:13.594Z,99777.26
2018-07-16T19:12:40.994Z,99777.62
2018-07-16T19:15:14.115Z,99780.05
2018-07-16T19:17:41.135Z,99779.72
2018-07-16T19:20:08.960Z,99788.54
2018-07-16T19:22:35.872Z,99801.16
2018-07-16T19:25:02.820Z,99798.17
2018-07-16T19:27:31.790Z,99792.74
2018-07-16T19:29:58.731Z,99799.87
2018-07-16T19:32:25.670Z,99795.56
2018-07-16T19:34:52.829Z,99797.93
2018-07-16T19:37:20.320Z,99797.41
2018-07-16T19:39:47.313Z,99797.00
2018-07-16T19:42:14.494Z,99806.61
2018-07-16T19:44:41.428Z,99802.94
2018-07-16T19:47:09.353Z,99800.81
2018-07-16T19:49:38.350Z,99803.98
2018-07-16T19:52:05.312Z,99818.94
2018-07-16T19:54:37.666Z,99819.94
2018-07-16T19:57:05.561Z,99831.06
2018-07-16T19:59:32.463Z,99826.20
2018-07-16T20:01:59.746Z,99832.22
2018-07-16T20:04:26.714Z,99834.67
2018-07-16T20:06:55.757Z,99828.81
2018-07-16T20:09:22.844Z,99839.05
2018-07-16T20:11:49.735Z,99840.08
2018-07-16T20:14:16.685Z,99846.53
2018-07-16T20:16:43.608Z,99847.41
2018-07-16T20:19:11.223Z,99855.47
2018-07-16T20:21:38.158Z,99854.60
2018-07-16T20:24:05.583Z,99853.16
2018-07-16T20:26:32.500Z,99855.12
2018-07-16T20:28:59.404Z,99853.52
2018-07-16T20:31:26.351Z,99852.20
2018-07-16T20:33:53.277Z,99856.86
2018-07-16T20:36:20.227Z,99854.34
2018-07-16T20:38:47.140Z,99859.04
2018-07-16T20:41:14.065Z,99855.97
2018-07-16T20:43:41.255Z,99861.28
2018-07-16T20:46:08.157Z,99861.88
2018-07-16T20:48:35.070Z,99864.44
2018-07-16T20:51:02.028Z,99859.06
2018-07-16T20:53:28.945Z,99862.31
2018-07-16T20:55:55.890Z,99866.34
2018-07-16T20:58:22.788Z,99865.66
2018-07-16T21:00:50.498Z,99871.56
2018-07-16T21:03:17.494Z,99870.58
2018-07-16T21:05:44.431Z,99875.48
2018-07-16T21:08:14.513Z,99874.75
2018-07-16T21:10:41.450Z,99871.25
2018-07-16T21:13:08.442Z,99869.58
2018-07-16T21:15:35.359Z,99871.28
2018-07-16T21:18:02.252Z,99869.06
2018-07-16T21:20:29.664Z,99873.78
2018-07-16T21:22:56.574Z,99877.80
2018-07-16T21:25:33.603Z,99877.16
2018-07-16T21:28:00.519Z,99878.09
2018-07-16T21:30:27.442Z,99878.42
2018-07-16T21:32:54.347Z,99876.86
2018-07-16T21:35:21.423Z,99876.00
2018-07-16T21:37:48.311Z,99871.19
2018-07-16T21:40:15.290Z,99877.66
2018-07-16T21:42:42.131Z,99880.45
2018-07-16T21:45:10.134Z,99888.67
2018-07-16T21:47:37.036Z,99888.72
2018-07-16T21:50:03.955Z,99891.27
2018-07-16T21:52:30.847Z,99889.56
2018-07-16T21:55:02.579Z,99894.46
2018-07-16T21:57:32.974Z,99899.39
2018-07-16T22:00:00.882Z,99905.25
2018-07-16T22:02:27.997Z,99906.31
2018-07-16T22:04:55.000Z,99907.29
2018-07-16T22:07:21.974Z,99900.03
2018-07-16T22:09:49.006Z,99903.52
2018-07-16T22:12:15.905Z,99895.70
2018-07-16T22:14:42.804Z,99899.54
2018-07-16T22:17:10.157Z,99893.58
2018-07-16T22:19:37.153Z,99902.59
2018-07-16T22:22:08.335Z,99900.32
2018-07-16T22:24:35.244Z,99901.69
2018-07-16T22:27:02.169Z,99901.26
2018-07-16T22:29:29.087Z,99906.83
2018-07-16T22:31:58.956Z,99909.99
2018-07-16T22:34:25.849Z,99904.92
2018-07-16T22:36:52.751Z,99908.58
2018-07-16T22:39:19.840Z,99902.72
2018-07-16T22:41:46.739Z,99905.73
2018-07-16T22:44:15.640Z,99902.80
2018-07-16T22:46:42.529Z,99908.87
2018-07-16T22:49:09.469Z,99911.61
2018-07-16T22:51:36.356Z,99913.34
2018-07-16T22:54:03.267Z,99908.66
2018-07-16T22:56:30.740Z,99912.63
2018-07-16T22:58:57.682Z,99921.43
2018-07-16T23:01:25.598Z,99919.19
2018-07-16T23:03:52.588Z,99920.51
2018-07-16T23:06:19.515Z,99921.62
2018-07-16T23:08:46.444Z,99931.95
2018-07-16T23:11:13.362Z,99933.55
2018-07-16T23:13:40.310Z,99931.93
2018-07-16T23:16:07.198Z,99923.34
2018-07-16T23:18:34.096Z,99934.97
2018-07-16T23:21:01.007Z,99939.83
2018-07-16T23:23:27.911Z,99937.83
2018-07-16T23:25:54.826Z,99944.77
2018-07-16T23:28:21.727Z,99938.77
2018-07-16T23:30:48.633Z,99946.96
2018-07-16T23:33:15.948Z,99935.70
2018-07-16T23:35:42.865Z,99936.45
2018-07-16T23:38:09.767Z,99941.00
2018-07-16T23:40:36.683Z,99938.88
2018-07-16T23:43:03.589Z,99946.84
2018-07-16T23:45:30.517Z,99950.42
2018-07-16T23:47:57.424Z,99947.80
2018-07-16T23:50:24.393Z,99955.37
2018-07-16T23:52:51.226Z,99954.56
2018-07-16T23:55:18.148Z,99953.53
2018-07-16T23:57:45.263Z,99951.83
